首页
METAR-TAF:

METAR-TAF

机场 :

Brookhaven Airport

Shirley, 紐約州, 美国

纬度: 40-49-18N, 经度: 072-52-08W, 海拔: 25米

当前天气观测

该预报发布于45分钟前的15:56 UTC
风速5节,风向东南
温度 9°C
湿度 81%
气压 1029 hPa
能見度: 16.1公里
阴天层高于2100英尺

METAR: KHWV 131556Z AUTO 13005KT 10SM OVC021 09/06 A3039 RMK AO2 RAE1459 SLP289 P0000 T00940061 TSNO $

时间: 11:41 (16:41 UTC)


TAF: 丢失

超过4000个机场的气象观测和天气预报(METAR&TAF报告)。

可查询的气象台以黄色和红色小点在地图上表示。

将鼠标移到小点上方,可查看气象台名称。

然后点击查看天气观测和预报。

如需切换地图:点击带黑十字的绿色按钮放大地图;点击带横线的绿色按钮缩小地图;或者点击绿色箭头查看邻近地区的地图。


METAR-TAF: